Golden Princess — ZCDA9 — position and weather

sailwx.info

Track history (hours):
 
Tides and Currents Weather Stations Pressure Air Temp Water Temp Dewpoint Dewpoint Depression Visibility Wind Speed Wind Dir Waves Ship Positions

Golden Princess

Operator: Princess Cruises

Last reported at 2014-Aug-27 12:33 UTC. Time now 2014-Aug-27 13:07 UTC.
Position N 58°18' W 135°42'.

Length 289.6 m; beam 36 m; draft 8.5 m.

Type: Ship. MMSI: 310344000.

Date/timePositionNaut miles runAvg speedWind from/ knotsBaromVisibWave heightAir tempDewpointWater temp
2014-Aug-27 12:33N 58°18' W 135°42'1312.9
2014-Aug-27 11:33N 58°13' W 135°20'  
2014-Aug-24 10:09N 49°17' W 126°44'1220.9
2014-Aug-24 09:33N 49°11' W 126°28'2121.0
2014-Aug-24 08:33N 48°59' W 126°01'2120.6
2014-Aug-24 07:33N 48°48' W 125°35'2221.7
2014-Aug-24 06:33N 48°38' W 125°06'2221.9
2014-Aug-24 05:33N 48°29' W 124°36'2221.9
2014-Aug-24 04:33N 48°21' W 124°05'2222.0
2014-Aug-24 03:33N 48°15' W 123°33'1313.2
2014-Aug-24 02:33N 48°10' W 123°15'2019.4
2014-Aug-24 01:31N 48°10' W 122°44'1819.4
2014-Aug-24 00:33N 47°54' W 122°29'1716.9
2014-Aug-23 23:33N 47°38' W 122°25'1 1.2
2014-Aug-23 22:31N 47°38' W 122°23'0 0.0
2014-Aug-23 21:33N 47°38' W 122°23'0 0.0
2014-Aug-23 20:27N 47°38' W 122°23'0 0.0
2014-Aug-23 19:32N 47°38' W 122°23'62 3.9
2014-Aug-23 03:32N 48°25' W 123°23'0 0.0
2014-Aug-23 02:33N 48°25' W 123°23'10 9.6
2014-Aug-23 01:33N 48°16' W 123°27'2019.9
2014-Aug-23 00:33N 48°15' W 123°57'2121.2
2014-Aug-22 23:33N 48°23' W 124°26'2120.7
2014-Aug-22 22:33N 48°29' W 124°56'2020.6
2014-Aug-22 21:34N 48°38' W 125°24'2121.0
2014-Aug-22 20:34N 48°50' W 125°50'2120.9
2014-Aug-22 19:33N 49°04' W 126°13'2220.6
2014-Aug-22 18:31N 49°18' W 126°39'2420.8
2014-Aug-22 17:21N 49°33' W 127°08'31220.9
2014-Aug-22 02:27N 54°09' W 131°02'2521.2
2014-Aug-22 01:17N 54°32' W 131°14'26210.1
2014-Aug-20 23:28N 58°13' W 135°29'1718.0
2014-Aug-20 22:33N 58°20' W 135°57'1414.4
2014-Aug-20 21:33N 58°34' W 136°04'1918.5
2014-Aug-20 20:33N 58°48' W 136°27'0 0.0
2014-Aug-20 15:34N 58°48' W 136°27'1818.2
2014-Aug-20 14:34N 58°35' W 136°04'1212.1
2014-Aug-20 13:33N 58°23' W 135°58'1010.4
2014-Aug-20 12:33N 58°17' W 135°41'1211.6
2014-Aug-20 11:33N 58°13' W 135°20'  
Track history (hours):
 
Tides and Currents Weather Stations Pressure Air Temp Water Temp Dewpoint Dewpoint Depression Visibility Wind Speed Wind Dir Waves Ship Positions

Golden Princess

Operator: Princess Cruises

Last reported at 2014-Aug-27 12:33 UTC. Time now 2014-Aug-27 13:07 UTC.
Position N 58°18' W 135°42'.

Length 289.6 m; beam 36 m; draft 8.5 m.

Type: Ship. MMSI: 310344000.

Date/timePositionNaut miles runAvg speedWind from/ knotsBaromVisibWave heightAir tempDewpointWater temp
2014-Aug-27 12:33N 58°18' W 135°42'1312.9
2014-Aug-27 11:33N 58°13' W 135°20'  
2014-Aug-24 10:09N 49°17' W 126°44'1220.9
2014-Aug-24 09:33N 49°11' W 126°28'2121.0
2014-Aug-24 08:33N 48°59' W 126°01'2120.6
2014-Aug-24 07:33N 48°48' W 125°35'2221.7
2014-Aug-24 06:33N 48°38' W 125°06'2221.9
2014-Aug-24 05:33N 48°29' W 124°36'2221.9
2014-Aug-24 04:33N 48°21' W 124°05'2222.0
2014-Aug-24 03:33N 48°15' W 123°33'1313.2
2014-Aug-24 02:33N 48°10' W 123°15'2019.4
2014-Aug-24 01:31N 48°10' W 122°44'1819.4
2014-Aug-24 00:33N 47°54' W 122°29'1716.9
2014-Aug-23 23:33N 47°38' W 122°25'1 1.2
2014-Aug-23 22:31N 47°38' W 122°23'0 0.0
2014-Aug-23 21:33N 47°38' W 122°23'0 0.0
2014-Aug-23 20:27N 47°38' W 122°23'0 0.0
2014-Aug-23 19:32N 47°38' W 122°23'62 3.9
2014-Aug-23 03:32N 48°25' W 123°23'0 0.0
2014-Aug-23 02:33N 48°25' W 123°23'10 9.6
2014-Aug-23 01:33N 48°16' W 123°27'2019.9
2014-Aug-23 00:33N 48°15' W 123°57'2121.2
2014-Aug-22 23:33N 48°23' W 124°26'2120.7
2014-Aug-22 22:33N 48°29' W 124°56'2020.6
2014-Aug-22 21:34N 48°38' W 125°24'2121.0
2014-Aug-22 20:34N 48°50' W 125°50'2120.9
2014-Aug-22 19:33N 49°04' W 126°13'2220.6
2014-Aug-22 18:31N 49°18' W 126°39'2420.8
2014-Aug-22 17:21N 49°33' W 127°08'31220.9
2014-Aug-22 02:27N 54°09' W 131°02'2521.2
2014-Aug-22 01:17N 54°32' W 131°14'26210.1
2014-Aug-20 23:28N 58°13' W 135°29'1718.0
2014-Aug-20 22:33N 58°20' W 135°57'1414.4
2014-Aug-20 21:33N 58°34' W 136°04'1918.5
2014-Aug-20 20:33N 58°48' W 136°27'0 0.0
2014-Aug-20 15:34N 58°48' W 136°27'1818.2
2014-Aug-20 14:34N 58°35' W 136°04'1212.1
2014-Aug-20 13:33N 58°23' W 135°58'1010.4
2014-Aug-20 12:33N 58°17' W 135°41'1211.6
2014-Aug-20 11:33N 58°13' W 135°20'  

Dump ship's entire track history